Time;durP1;ratioP1;P1;durP2;ratioP2;P2;SDS_P1;SDS_P2;PMS_P1;PMS_P2;Temp;Humidity;BMP_temperature;BMP_pressure;BME280_temperature;BME280_humidity;BME280_pressure;Samples;Min_cycle;Max_cycle;Signal;HPM_P1;HPM_P2
2022/04/15 00:00:00;;;;;;;;;;;8.70;99.90;;;;;;5064241;28;19925;-76
2022/04/15 00:02:27;;;;;;;;;;;8.50;99.90;;;;;;5065566;28;20299;-76
2022/04/15 00:04:56;;;;;;;;;;;8.50;99.90;;;;;;5070041;28;19929;-76
2022/04/15 00:07:24;;;;;;;;;;;8.40;99.90;;;;;;5065477;28;19924;-76
2022/04/15 00:09:51;;;;;;;;;;;8.40;99.90;;;;;;5068735;28;19933;-76
2022/04/15 00:12:27;;;;;;;;;;;8.40;99.90;;;;;;5067234;28;19925;-76
2022/04/15 00:14:54;;;;;;;;;;;8.30;99.90;;;;;;5065877;28;19939;-76
2022/04/15 00:17:30;;;;;;;;;;;8.20;99.90;;;;;;5066915;28;19925;-76
2022/04/15 00:19:56;;;;;;;;;;;8.10;99.90;;;;;;5061932;28;20403;-76
2022/04/15 00:22:23;;;;;;;;;;;8.00;99.90;;;;;;5069658;28;20007;-76
2022/04/15 00:24:50;;;;;;;;;;;8.00;99.90;;;;;;5067522;28;19924;-76
2022/04/15 00:27:17;;;;;;;;;;;7.90;99.90;;;;;;5067638;28;19925;-76
2022/04/15 00:29:43;;;;;;;;;;;8.00;99.90;;;;;;5069951;28;19932;-76
2022/04/15 00:32:10;;;;;;;;;;;8.00;99.90;;;;;;5066933;28;19924;-76
2022/04/15 00:34:36;;;;;;;;;;;7.90;99.90;;;;;;5067694;28;19924;-76
2022/04/15 00:37:03;;;;;;;;;;;7.80;99.90;;;;;;5069473;28;19928;-76
2022/04/15 00:39:31;;;;;;;;;;;7.80;99.90;;;;;;5065629;28;19928;-76
2022/04/15 00:41:58;;;;;;;;;;;7.70;99.90;;;;;;5064302;28;19925;-76
2022/04/15 00:44:25;;;;;;;;;;;7.70;99.90;;;;;;5067545;28;20019;-76
2022/04/15 00:46:51;;;;;;;;;;;7.80;99.90;;;;;;5066196;28;19975;-76
2022/04/15 00:49:18;;;;;;;;;;;7.80;99.90;;;;;;5064495;28;20354;-76
2022/04/15 00:51:47;;;;;;;;;;;7.80;99.90;;;;;;5068795;28;20027;-76
2022/04/15 00:54:18;;;;;;;;;;;7.70;99.90;;;;;;5068635;28;19924;-76
2022/04/15 00:56:48;;;;;;;;;;;7.70;99.90;;;;;;5067582;28;19925;-76
2022/04/15 00:59:16;;;;;;;;;;;7.70;99.90;;;;;;5069067;28;19932;-76
2022/04/15 01:01:43;;;;;;;;;;;7.70;99.90;;;;;;5053582;28;19925;-76
2022/04/15 01:04:10;;;;;;;;;;;7.60;99.90;;;;;;5068528;28;20168;-76
2022/04/15 01:06:38;;;;;;;;;;;7.60;99.90;;;;;;5089902;28;19924;-76
2022/04/15 01:09:05;;;;;;;;;;;7.60;99.90;;;;;;5069880;28;19924;-76
2022/04/15 01:11:33;;;;;;;;;;;7.50;99.90;;;;;;5068918;28;19931;-76
2022/04/15 01:14:03;;;;;;;;;;;7.40;99.90;;;;;;5059455;28;20417;-76
2022/04/15 01:16:30;;;;;;;;;;;7.30;99.90;;;;;;5066146;28;19924;-76
2022/04/15 01:18:56;;;;;;;;;;;7.20;99.90;;;;;;5064879;28;19957;-76
2022/04/15 01:21:24;;;;;;;;;;;7.10;99.90;;;;;;5069056;28;19960;-76
2022/04/15 01:23:51;;;;;;;;;;;7.00;99.90;;;;;;5064147;28;19932;-76
2022/04/15 01:26:18;;;;;;;;;;;6.90;99.90;;;;;;5066528;28;19933;-76
2022/04/15 01:28:47;;;;;;;;;;;6.80;99.90;;;;;;5063023;28;20412;-76
2022/04/15 01:31:14;;;;;;;;;;;6.80;99.90;;;;;;5068331;28;20404;-76
2022/04/15 01:33:43;;;;;;;;;;;6.70;99.90;;;;;;5066722;28;19982;-76
2022/04/15 01:36:14;;;;;;;;;;;6.70;99.90;;;;;;5068971;28;19939;-76
2022/04/15 01:38:40;;;;;;;;;;;6.60;99.90;;;;;;5067836;28;19931;-76
2022/04/15 01:41:07;;;;;;;;;;;6.60;99.90;;;;;;5068021;28;19931;-76
2022/04/15 01:43:34;;;;;;;;;;;6.60;99.90;;;;;;5063094;28;19924;-76
2022/04/15 01:46:00;;;;;;;;;;;6.50;99.90;;;;;;5068014;28;19955;-76
2022/04/15 01:48:27;;;;;;;;;;;6.50;99.90;;;;;;5066076;28;19931;-76
2022/04/15 01:50:54;;;;;;;;;;;6.50;99.90;;;;;;5068620;28;19924;-76
2022/04/15 01:53:22;;;;;;;;;;;6.50;99.90;;;;;;5068493;28;20399;-76
2022/04/15 01:55:49;;;;;;;;;;;6.50;99.90;;;;;;5067760;28;19936;-76
2022/04/15 01:58:16;;;;;;;;;;;6.50;99.90;;;;;;5065241;28;19946;-76
2022/04/15 02:00:43;;;;;;;;;;;6.50;99.90;;;;;;5057290;28;20302;-76
2022/04/15 02:03:10;;;;;;;;;;;6.50;99.90;;;;;;5068366;28;19964;-76
2022/04/15 02:05:36;;;;;;;;;;;6.50;99.90;;;;;;5060922;28;20172;-76
2022/04/15 02:08:03;;;;;;;;;;;6.40;99.90;;;;;;5066020;28;19924;-76
2022/04/15 02:10:30;;;;;;;;;;;6.40;99.90;;;;;;5069930;28;20397;-76
2022/04/15 02:12:56;;;;;;;;;;;6.40;99.90;;;;;;5066030;28;19924;-76
2022/04/15 02:15:26;;;;;;;;;;;6.40;99.90;;;;;;5065983;28;20421;-76
2022/04/15 02:17:54;;;;;;;;;;;6.40;99.90;;;;;;5054051;28;20372;-76
2022/04/15 02:20:21;;;;;;;;;;;6.30;99.90;;;;;;5071158;28;20349;-76
2022/04/15 02:22:47;;;;;;;;;;;6.30;99.90;;;;;;5070137;28;20007;-76
2022/04/15 02:25:14;;;;;;;;;;;6.30;99.90;;;;;;5061604;28;19933;-75
2022/04/15 02:27:43;;;;;;;;;;;6.30;99.90;;;;;;5068500;28;19924;-76
2022/04/15 02:30:10;;;;;;;;;;;6.30;99.90;;;;;;5064987;28;19925;-76
2022/04/15 02:32:37;;;;;;;;;;;6.30;99.90;;;;;;5070845;28;19925;-76
2022/04/15 02:35:08;;;;;;;;;;;6.30;99.90;;;;;;5069748;28;19932;-76
2022/04/15 02:37:35;;;;;;;;;;;6.30;99.90;;;;;;5071309;28;19969;-76
2022/04/15 02:40:02;;;;;;;;;;;6.30;99.90;;;;;;5064188;28;19928;-76
2022/04/15 02:42:28;;;;;;;;;;;6.30;99.90;;;;;;5071460;28;19925;-76
2022/04/15 02:44:56;;;;;;;;;;;6.30;99.90;;;;;;5069692;28;19928;-76
2022/04/15 02:47:25;;;;;;;;;;;6.30;99.90;;;;;;5069723;28;20005;-76
2022/04/15 02:49:52;;;;;;;;;;;6.30;99.90;;;;;;5070840;28;19924;-76
2022/04/15 02:52:19;;;;;;;;;;;6.20;99.90;;;;;;5071800;28;20034;-76
2022/04/15 02:54:45;;;;;;;;;;;6.10;99.90;;;;;;5072095;28;19928;-76
2022/04/15 02:57:12;;;;;;;;;;;6.10;99.90;;;;;;5067664;28;19925;-76
2022/04/15 02:59:38;;;;;;;;;;;6.10;99.90;;;;;;5064328;28;20414;-76
2022/04/15 03:02:05;;;;;;;;;;;6.00;99.90;;;;;;5071841;28;20275;-75
2022/04/15 03:04:32;;;;;;;;;;;6.00;99.90;;;;;;5063666;28;19967;-75
2022/04/15 03:06:58;;;;;;;;;;;5.90;99.90;;;;;;5071078;28;20322;-75
2022/04/15 03:09:25;;;;;;;;;;;5.90;99.90;;;;;;5069364;28;20154;-75
2022/04/15 03:11:51;;;;;;;;;;;5.90;99.90;;;;;;5071654;28;19931;-75
2022/04/15 03:14:18;;;;;;;;;;;5.80;99.90;;;;;;5060456;28;19975;-75
2022/04/15 03:16:45;;;;;;;;;;;5.80;99.90;;;;;;5063171;28;19924;-75
2022/04/15 03:19:11;;;;;;;;;;;5.90;99.90;;;;;;5068867;28;19989;-75
2022/04/15 03:21:41;;;;;;;;;;;5.80;99.90;;;;;;5070536;28;19931;-75
2022/04/15 03:24:08;;;;;;;;;;;5.90;99.90;;;;;;5070929;28;19925;-75
2022/04/15 03:26:35;;;;;;;;;;;5.90;99.90;;;;;;5069539;28;19924;-75
2022/04/15 03:29:01;;;;;;;;;;;5.90;99.90;;;;;;5068514;28;19943;-75
2022/04/15 03:31:28;;;;;;;;;;;5.90;99.90;;;;;;5062509;28;19925;-75
2022/04/15 03:33:55;;;;;;;;;;;5.80;99.90;;;;;;5070413;28;19932;-75
2022/04/15 03:36:22;;;;;;;;;;;5.80;99.90;;;;;;5068742;28;19924;-75
2022/04/15 03:38:48;;;;;;;;;;;5.80;99.90;;;;;;5070441;28;20302;-75
2022/04/15 03:41:15;;;;;;;;;;;5.70;99.90;;;;;;5069766;28;19975;-75
2022/04/15 03:43:42;;;;;;;;;;;5.70;99.90;;;;;;5070809;28;20280;-75
2022/04/15 03:46:08;;;;;;;;;;;5.60;99.90;;;;;;5070700;28;19925;-75
2022/04/15 03:48:38;;;;;;;;;;;5.50;99.90;;;;;;5070503;28;20019;-75
2022/04/15 03:51:04;;;;;;;;;;;5.50;99.90;;;;;;5066573;28;20383;-75
2022/04/15 03:53:31;;;;;;;;;;;5.50;99.90;;;;;;5083399;28;19931;-75
2022/04/15 03:55:58;;;;;;;;;;;5.60;99.90;;;;;;5049884;28;19935;-76
2022/04/15 03:58:24;;;;;;;;;;;5.50;99.90;;;;;;5077042;28;20311;-75
2022/04/15 04:00:51;;;;;;;;;;;5.40;99.90;;;;;;5070147;28;19928;-75
2022/04/15 04:03:17;;;;;;;;;;;5.40;99.90;;;;;;5068137;28;19925;-75
2022/04/15 04:05:44;;;;;;;;;;;5.30;99.90;;;;;;5068053;28;19968;-75
2022/04/15 04:08:11;;;;;;;;;;;5.20;99.90;;;;;;5062587;28;19932;-76
2022/04/15 04:10:38;;;;;;;;;;;5.10;99.90;;;;;;5050593;28;19929;-77
2022/04/15 04:13:05;;;;;;;;;;;5.10;99.90;;;;;;5070312;28;19925;-77
2022/04/15 04:15:32;;;;;;;;;;;5.10;99.90;;;;;;5068284;28;20361;-77
2022/04/15 04:17:59;;;;;;;;;;;5.10;99.90;;;;;;5069011;28;20051;-77
2022/04/15 04:20:27;;;;;;;;;;;5.00;99.90;;;;;;5069924;28;19928;-76
2022/04/15 04:22:54;;;;;;;;;;;5.10;99.90;;;;;;5066966;28;19930;-77
2022/04/15 04:25:21;;;;;;;;;;;5.10;99.90;;;;;;5068697;28;19960;-77
2022/04/15 04:27:47;;;;;;;;;;;5.10;99.90;;;;;;5068185;28;20306;-77
2022/04/15 04:30:14;;;;;;;;;;;5.10;99.90;;;;;;5069341;28;20011;-77
2022/04/15 04:32:50;;;;;;;;;;;5.10;99.90;;;;;;5070206;28;20456;-77
2022/04/15 04:35:18;;;;;;;;;;;5.10;99.90;;;;;;5066287;28;19956;-77
2022/04/15 04:37:45;;;;;;;;;;;5.00;99.90;;;;;;5071170;28;19925;-76
2022/04/15 04:40:12;;;;;;;;;;;5.00;99.90;;;;;;5067313;28;20021;-77
2022/04/15 04:42:39;;;;;;;;;;;5.00;99.90;;;;;;5069869;28;19925;-77
2022/04/15 04:45:07;;;;;;;;;;;5.00;99.90;;;;;;5086456;28;19924;-77
2022/04/15 04:47:33;;;;;;;;;;;4.90;99.90;;;;;;5073730;28;19931;-77
2022/04/15 04:50:01;;;;;;;;;;;4.90;99.90;;;;;;5070025;28;19924;-77
2022/04/15 04:52:28;;;;;;;;;;;4.90;99.90;;;;;;5058751;28;19932;-77
2022/04/15 04:54:54;;;;;;;;;;;5.00;99.90;;;;;;5058684;28;19931;-77
2022/04/15 04:57:21;;;;;;;;;;;5.10;99.90;;;;;;5057640;28;19924;-77
2022/04/15 04:59:52;;;;;;;;;;;5.20;99.90;;;;;;5066502;28;19932;-77
2022/04/15 05:02:18;;;;;;;;;;;5.30;99.90;;;;;;5065923;28;20228;-74
2022/04/15 05:04:45;;;;;;;;;;;5.40;99.90;;;;;;5067189;28;19935;-74
2022/04/15 05:07:15;;;;;;;;;;;5.40;99.90;;;;;;5060892;28;19925;-75
2022/04/15 05:09:43;;;;;;;;;;;5.50;99.90;;;;;;5065357;28;19928;-75
2022/04/15 05:12:10;;;;;;;;;;;5.60;99.90;;;;;;5065789;28;20084;-75
2022/04/15 05:14:37;;;;;;;;;;;5.70;99.90;;;;;;5096252;28;19928;-75
2022/04/15 05:17:04;;;;;;;;;;;5.70;99.90;;;;;;5061854;28;19932;-75
2022/04/15 05:19:33;;;;;;;;;;;5.80;99.90;;;;;;5066209;28;20371;-75
2022/04/15 05:22:00;;;;;;;;;;;5.90;99.90;;;;;;5068008;28;19931;-75
2022/04/15 05:24:26;;;;;;;;;;;6.00;99.90;;;;;;5068199;28;19932;-75
2022/04/15 05:26:56;;;;;;;;;;;6.10;99.90;;;;;;5065234;28;19930;-75
2022/04/15 05:29:22;;;;;;;;;;;6.20;99.90;;;;;;5064206;28;19925;-75
2022/04/15 05:31:49;;;;;;;;;;;6.30;99.90;;;;;;5067874;28;20315;-76
2022/04/15 05:34:16;;;;;;;;;;;6.40;99.90;;;;;;5067037;28;20312;-75
2022/04/15 05:36:42;;;;;;;;;;;6.50;99.90;;;;;;5066006;28;20545;-75
2022/04/15 05:39:09;;;;;;;;;;;6.70;99.90;;;;;;5058528;28;19932;-75
2022/04/15 05:41:36;;;;;;;;;;;6.80;99.90;;;;;;5052460;28;19925;-75
2022/04/15 05:44:03;;;;;;;;;;;6.90;99.90;;;;;;5055008;28;19925;-76
2022/04/15 05:46:34;;;;;;;;;;;7.00;99.90;;;;;;5062893;28;20185;-76
2022/04/15 05:49:01;;;;;;;;;;;7.10;99.90;;;;;;5063642;28;19924;-76
2022/04/15 05:51:27;;;;;;;;;;;7.30;99.90;;;;;;5058437;28;19924;-75
2022/04/15 05:53:54;;;;;;;;;;;7.40;99.90;;;;;;5063955;28;19929;-76
2022/04/15 05:56:21;;;;;;;;;;;7.60;99.90;;;;;;5064752;28;19932;-76
2022/04/15 05:58:50;;;;;;;;;;;7.90;99.90;;;;;;5064141;28;20011;-75
2022/04/15 06:01:17;;;;;;;;;;;8.20;99.90;;;;;;5065480;28;19969;-75
2022/04/15 06:03:44;;;;;;;;;;;8.50;99.90;;;;;;5066308;28;19924;-75
2022/04/15 06:06:10;;;;;;;;;;;8.90;99.90;;;;;;5062560;28;20198;-76
2022/04/15 06:08:37;;;;;;;;;;;9.80;99.90;;;;;;5064589;28;19928;-76
2022/04/15 06:11:03;;;;;;;;;;;10.90;99.90;;;;;;5061176;28;19947;-76
2022/04/15 06:13:33;;;;;;;;;;;11.90;99.90;;;;;;5058935;28;19925;-73
2022/04/15 06:16:00;;;;;;;;;;;12.30;99.90;;;;;;5058456;28;20406;-76
2022/04/15 06:18:34;;;;;;;;;;;12.70;99.90;;;;;;5091009;28;19936;-76
2022/04/15 06:21:01;;;;;;;;;;;13.30;99.90;;;;;;5061755;28;19924;-75
2022/04/15 06:23:28;;;;;;;;;;;13.80;99.90;;;;;;5060628;28;19929;-74
2022/04/15 06:25:57;;;;;;;;;;;14.40;99.90;;;;;;5061225;28;20070;-74
2022/04/15 06:28:23;;;;;;;;;;;15.30;99.90;;;;;;5061170;28;19928;-75
2022/04/15 06:30:50;;;;;;;;;;;16.20;99.90;;;;;;5064851;28;19928;-75
2022/04/15 06:33:20;;;;;;;;;;;16.90;99.90;;;;;;5055887;28;20023;-75
2022/04/15 06:35:52;;;;;;;;;;;17.60;99.90;;;;;;5067034;28;20223;-75
2022/04/15 06:38:19;;;;;;;;;;;17.90;99.90;;;;;;5064718;28;20093;-75
2022/04/15 06:40:45;;;;;;;;;;;18.10;99.90;;;;;;5061276;28;19931;-75
2022/04/15 06:43:14;;;;;;;;;;;18.50;99.90;;;;;;5050956;28;19971;-74
2022/04/15 06:45:41;;;;;;;;;;;18.70;99.90;;;;;;5056286;28;20887;-74
2022/04/15 06:48:07;;;;;;;;;;;18.90;99.90;;;;;;5057970;28;20391;-74
2022/04/15 06:50:34;;;;;;;;;;;19.30;99.90;;;;;;5062352;28;19936;-75
2022/04/15 06:53:04;;;;;;;;;;;19.90;99.90;;;;;;5062577;28;19924;-75
2022/04/15 06:55:31;;;;;;;;;;;20.50;99.90;;;;;;5067672;28;19934;-74
2022/04/15 06:57:58;;;;;;;;;;;21.00;99.90;;;;;;5068615;28;19933;-74
2022/04/15 07:00:25;;;;;;;;;;;21.30;99.90;;;;;;5067122;28;19999;-74
2022/04/15 07:02:55;;;;;;;;;;;21.20;99.90;;;;;;5071546;28;20375;-74
2022/04/15 07:05:21;;;;;;;;;;;21.40;99.90;;;;;;5069511;28;19975;-74
2022/04/15 07:07:48;;;;;;;;;;;21.60;99.90;;;;;;5064280;28;19924;-74
2022/04/15 07:10:15;;;;;;;;;;;21.90;99.90;;;;;;5060706;28;19935;-75
2022/04/15 07:12:42;;;;;;;;;;;22.20;99.90;;;;;;5061001;28;19924;-79
2022/04/15 07:15:09;;;;;;;;;;;22.30;99.90;;;;;;5067359;28;19929;-77
2022/04/15 07:17:35;;;;;;;;;;;22.40;99.90;;;;;;5064485;28;19924;-76
2022/04/15 07:20:02;;;;;;;;;;;22.40;99.90;;;;;;5062002;28;19924;-76
2022/04/15 07:22:29;;;;;;;;;;;22.20;99.90;;;;;;5066577;28;19924;-77
2022/04/15 07:24:56;;;;;;;;;;;22.20;99.90;;;;;;5065440;28;20291;-77
2022/04/15 07:27:26;;;;;;;;;;;22.30;99.90;;;;;;5064658;28;20362;-77
2022/04/15 07:29:53;;;;;;;;;;;22.30;99.90;;;;;;5066171;28;19924;-76
2022/04/15 07:32:21;;;;;;;;;;;22.40;99.90;;;;;;5065112;28;20603;-77
2022/04/15 07:34:51;;;;;;;;;;;22.40;99.90;;;;;;5068374;28;19928;-76
2022/04/15 07:37:18;;;;;;;;;;;22.50;99.90;;;;;;5065030;28;20139;-76
2022/04/15 07:39:45;;;;;;;;;;;22.50;99.90;;;;;;5068920;28;20019;-76
2022/04/15 07:42:12;;;;;;;;;;;22.70;99.90;;;;;;5061759;28;20457;-76
2022/04/15 07:44:39;;;;;;;;;;;23.30;99.90;;;;;;5066203;28;19925;-76
2022/04/15 07:47:07;;;;;;;;;;;23.50;99.90;;;;;;5053572;28;19924;-76
2022/04/15 07:49:37;;;;;;;;;;;23.70;99.90;;;;;;5065424;28;20443;-76
2022/04/15 07:52:08;;;;;;;;;;;23.80;99.90;;;;;;5061539;28;20472;-76
2022/04/15 07:54:35;;;;;;;;;;;23.60;99.90;;;;;;5061046;28;19947;-76
2022/04/15 07:57:02;;;;;;;;;;;23.70;99.90;;;;;;5064726;28;20379;-76
2022/04/15 07:59:28;;;;;;;;;;;23.50;99.90;;;;;;5061404;28;19960;-76
2022/04/15 08:01:55;;;;;;;;;;;23.30;99.90;;;;;;5064594;28;20006;-76
2022/04/15 08:04:22;;;;;;;;;;;23.10;99.90;;;;;;5063855;28;19946;-76
2022/04/15 08:06:52;;;;;;;;;;;23.10;99.90;;;;;;5066139;28;20046;-77
2022/04/15 08:09:19;;;;;;;;;;;23.00;99.90;;;;;;5068195;28;19925;-77
2022/04/15 08:11:45;;;;;;;;;;;23.30;99.90;;;;;;5059395;28;19932;-76
2022/04/15 08:14:12;;;;;;;;;;;23.20;99.90;;;;;;5066645;28;19924;-77
2022/04/15 08:16:39;;;;;;;;;;;22.90;99.90;;;;;;5064505;28;20007;-77
2022/04/15 08:19:05;;;;;;;;;;;22.70;99.90;;;;;;5067171;28;19929;-77
2022/04/15 08:21:33;;;;;;;;;;;22.70;99.90;;;;;;5060617;28;19928;-77
2022/04/15 08:24:01;;;;;;;;;;;22.70;99.90;;;;;;5064515;28;19924;-77
2022/04/15 08:26:29;;;;;;;;;;;22.40;99.90;;;;;;5069028;28;19924;-76
2022/04/15 08:28:55;;;;;;;;;;;22.50;99.90;;;;;;5063773;28;20355;-76
2022/04/15 08:31:22;;;;;;;;;;;22.60;99.90;;;;;;5065499;28;19969;-76
2022/04/15 08:33:52;;;;;;;;;;;22.60;99.90;;;;;;5063144;28;20363;-75
2022/04/15 08:36:19;;;;;;;;;;;22.20;99.90;;;;;;5067910;28;19924;-74
2022/04/15 08:38:45;;;;;;;;;;;21.40;99.90;;;;;;5063190;28;19932;-75
2022/04/15 08:41:14;;;;;;;;;;;21.20;99.90;;;;;;5091482;28;19932;-75
2022/04/15 08:43:42;;;;;;;;;;;21.00;99.90;;;;;;5060514;28;19924;-74
2022/04/15 08:46:12;;;;;;;;;;;21.10;99.90;;;;;;5066011;28;19924;-74
2022/04/15 08:48:39;;;;;;;;;;;21.40;99.90;;;;;;5061141;28;19987;-75
2022/04/15 08:51:06;;;;;;;;;;;21.40;99.90;;;;;;5060873;28;19924;-76
2022/04/15 08:53:37;;;;;;;;;;;20.80;99.90;;;;;;5063262;28;20027;-75
2022/04/15 08:56:04;;;;;;;;;;;20.60;99.90;;;;;;5064772;28;20346;-76
2022/04/15 08:58:30;;;;;;;;;;;20.70;99.90;;;;;;5064438;28;20178;-76
2022/04/15 09:01:00;;;;;;;;;;;20.70;99.90;;;;;;5067024;28;19928;-75
2022/04/15 09:03:26;;;;;;;;;;;20.80;99.90;;;;;;5065874;28;20413;-75
2022/04/15 09:05:54;;;;;;;;;;;20.90;99.90;;;;;;5064359;28;19951;-75
2022/04/15 09:08:20;;;;;;;;;;;21.30;99.90;;;;;;5063160;28;19980;-75
2022/04/15 09:10:54;;;;;;;;;;;21.90;99.90;;;;;;5062432;28;20167;-75
2022/04/15 09:13:23;;;;;;;;;;;21.90;99.70;;;;;;5059791;28;19928;-74
2022/04/15 09:15:50;;;;;;;;;;;22.00;98.50;;;;;;5067397;28;19952;-75
2022/04/15 09:18:27;;;;;;;;;;;21.90;99.30;;;;;;5065203;28;20399;-75
2022/04/15 09:21:13;;;;;;;;;;;21.60;99.90;;;;;;5059326;28;20364;-75
2022/04/15 09:23:40;;;;;;;;;;;22.10;99.70;;;;;;5053824;28;19924;-75
2022/04/15 09:26:06;;;;;;;;;;;22.10;99.30;;;;;;5064613;28;19935;-74
2022/04/15 09:28:35;;;;;;;;;;;22.10;98.60;;;;;;5065483;28;19932;-74
2022/04/15 09:31:02;;;;;;;;;;;21.90;98.70;;;;;;5065205;28;19940;-75
2022/04/15 09:33:32;;;;;;;;;;;22.10;98.90;;;;;;5064418;28;19933;-74
2022/04/15 09:35:59;;;;;;;;;;;22.30;97.70;;;;;;5056125;28;19929;-76
2022/04/15 09:38:39;;;;;;;;;;;21.90;97.50;;;;;;5067131;28;20288;-76
2022/04/15 09:41:19;;;;;;;;;;;21.30;97.60;;;;;;5056665;28;19939;-75
2022/04/15 09:43:52;;;;;;;;;;;21.30;97.20;;;;;;5065525;28;19928;-74
2022/04/15 09:46:19;;;;;;;;;;;21.20;97.40;;;;;;5060683;28;19963;-76
2022/04/15 09:49:01;;;;;;;;;;;21.20;97.30;;;;;;5054131;28;19932;-75
2022/04/15 09:51:33;;;;;;;;;;;21.50;97.40;;;;;;5076186;28;19932;-75
2022/04/15 09:54:01;;;;;;;;;;;21.80;97.40;;;;;;5062930;28;19925;-76
2022/04/15 09:56:30;;;;;;;;;;;22.20;97.50;;;;;;5064282;28;19928;-75
2022/04/15 09:59:00;;;;;;;;;;;22.10;97.80;;;;;;5060570;28;19940;-74
2022/04/15 10:01:28;;;;;;;;;;;22.60;97.50;;;;;;5075737;28;20419;-75
2022/04/15 10:03:55;;;;;;;;;;;22.60;97.10;;;;;;5071936;28;19975;-75
2022/04/15 10:06:22;;;;;;;;;;;22.70;97.30;;;;;;5078679;28;19931;-75
2022/04/15 10:09:03;;;;;;;;;;;22.50;97.40;;;;;;5071823;28;19955;-75
2022/04/15 10:11:32;;;;;;;;;;;22.50;97.10;;;;;;5058652;28;20288;-76
2022/04/15 10:13:59;;;;;;;;;;;22.80;97.20;;;;;;5065628;28;19929;-76
2022/04/15 10:16:26;;;;;;;;;;;23.50;96.70;;;;;;5063005;28;19971;-76
2022/04/15 10:18:53;;;;;;;;;;;23.70;96.40;;;;;;5065412;28;19978;-76
2022/04/15 10:21:20;;;;;;;;;;;24.10;96.00;;;;;;5097589;28;19940;-75
2022/04/15 10:23:47;;;;;;;;;;;24.20;96.40;;;;;;5061543;28;20454;-76
2022/04/15 10:26:16;;;;;;;;;;;23.90;95.80;;;;;;5065083;28;20302;-76
2022/04/15 10:28:45;;;;;;;;;;;23.80;95.50;;;;;;5068011;28;19924;-76
2022/04/15 10:31:13;;;;;;;;;;;24.40;95.60;;;;;;5062950;28;20299;-76
2022/04/15 10:33:40;;;;;;;;;;;24.60;94.90;;;;;;5066397;28;20388;-75
2022/04/15 10:36:12;;;;;;;;;;;24.60;95.10;;;;;;5066141;28;19924;-75
2022/04/15 10:38:57;;;;;;;;;;;24.90;94.70;;;;;;5068871;28;19928;-76
2022/04/15 10:41:24;;;;;;;;;;;25.10;94.90;;;;;;5062533;28;19925;-76
2022/04/15 10:43:59;;;;;;;;;;;25.00;95.10;;;;;;5070390;28;19986;-76
2022/04/15 10:46:36;;;;;;;;;;;24.60;94.90;;;;;;5089726;28;19925;-76
2022/04/15 10:49:23;;;;;;;;;;;24.90;95.00;;;;;;5068880;28;20023;-76
2022/04/15 10:51:58;;;;;;;;;;;25.00;94.80;;;;;;5066299;28;19934;-77
2022/04/15 10:54:25;;;;;;;;;;;;;;;;;;5068953;28;19959;-76
2022/04/15 10:56:58;;;;;;;;;;;25.40;94.90;;;;;;5066459;28;19929;-76
2022/04/15 11:02:49;;;;;;;;;;;25.60;94.40;;;;;;5027722;28;19940;-75
2022/04/15 11:05:32;;;;;;;;;;;24.30;94.70;;;;;;5064496;28;20254;-75
2022/04/15 11:08:19;;;;;;;;;;;24.30;95.20;;;;;;5059703;28;19939;-76
2022/04/15 11:10:52;;;;;;;;;;;24.80;96.00;;;;;;5060301;28;19984;-77
2022/04/15 11:13:28;;;;;;;;;;;25.70;95.40;;;;;;5065563;28;19989;-76
2022/04/15 11:16:04;;;;;;;;;;;25.80;94.70;;;;;;5066157;28;19970;-77
2022/04/15 11:18:43;;;;;;;;;;;24.30;94.90;;;;;;5082838;28;19924;-76
2022/04/15 11:21:14;;;;;;;;;;;22.90;96.00;;;;;;5066925;28;19969;-76
2022/04/15 11:23:42;;;;;;;;;;;22.70;97.00;;;;;;5067945;28;19931;-74
2022/04/15 11:26:09;;;;;;;;;;;23.50;96.90;;;;;;5068508;28;19966;-77
2022/04/15 11:28:36;;;;;;;;;;;24.10;96.50;;;;;;5062706;28;19939;-77
2022/04/15 11:31:17;;;;;;;;;;;24.40;96.40;;;;;;5064411;28;20152;-76
2022/04/15 11:33:45;;;;;;;;;;;24.70;95.90;;;;;;5067904;28;19939;-77
2022/04/15 11:36:11;;;;;;;;;;;24.60;95.30;;;;;;5063662;28;19932;-76
2022/04/15 11:38:38;;;;;;;;;;;24.80;95.40;;;;;;5065321;28;19951;-77
2022/04/15 11:41:05;;;;;;;;;;;24.60;95.10;;;;;;5067890;28;20182;-76
2022/04/15 11:43:32;;;;;;;;;;;23.90;94.70;;;;;;5067204;28;20393;-76
2022/04/15 11:45:58;;;;;;;;;;;23.30;94.20;;;;;;5069753;28;19935;-74
2022/04/15 11:48:25;;;;;;;;;;;22.50;95.60;;;;;;5067008;28;20430;-74
2022/04/15 11:50:53;;;;;;;;;;;22.50;95.60;;;;;;5067807;28;20417;-75
2022/04/15 11:53:21;;;;;;;;;;;22.50;95.90;;;;;;5068441;28;19924;-75
2022/04/15 11:55:52;;;;;;;;;;;22.90;96.00;;;;;;5066324;28;19925;-76
2022/04/15 11:58:21;;;;;;;;;;;23.20;95.80;;;;;;5066565;28;19933;-74
2022/04/15 12:00:53;;;;;;;;;;;22.50;95.70;;;;;;5069483;28;19925;-76
2022/04/15 12:03:20;;;;;;;;;;;22.20;96.60;;;;;;5067886;28;19924;-74
2022/04/15 12:05:51;;;;;;;;;;;22.40;96.00;;;;;;5065077;28;19924;-75
2022/04/15 12:08:19;;;;;;;;;;;22.80;95.60;;;;;;5064644;28;20196;-76
2022/04/15 12:10:47;;;;;;;;;;;23.00;95.30;;;;;;5068305;28;20006;-76
2022/04/15 12:13:14;;;;;;;;;;;23.50;95.10;;;;;;5066516;28;19924;-76
2022/04/15 12:15:48;;;;;;;;;;;23.70;95.00;;;;;;5065158;28;19924;-76
2022/04/15 12:18:15;;;;;;;;;;;24.10;94.90;;;;;;5071520;28;19979;-75
2022/04/15 12:20:43;;;;;;;;;;;24.30;94.30;;;;;;5063327;28;19954;-76
2022/04/15 12:23:12;;;;;;;;;;;24.30;94.20;;;;;;5063738;28;20414;-76
2022/04/15 12:31:29;;;;;;;;;;;23.90;95.20;;;;;;5036908;28;20027;-74
2022/04/15 12:33:56;;;;;;;;;;;23.80;94.90;;;;;;5041508;28;20269;-75
2022/04/15 12:36:23;;;;;;;;;;;22.90;95.40;;;;;;5047702;28;20001;-75
2022/04/15 12:38:56;;;;;;;;;;;22.40;95.80;;;;;;5048333;28;19932;-77
2022/04/15 12:41:23;;;;;;;;;;;22.00;95.80;;;;;;5041680;28;19975;-75
2022/04/15 12:44:09;;;;;;;;;;;21.40;95.70;;;;;;5042378;28;19925;-75
2022/04/15 12:46:37;;;;;;;;;;;21.30;96.40;;;;;;5045225;28;19924;-75
2022/04/15 12:49:03;;;;;;;;;;;21.70;95.90;;;;;;5049058;28;19947;-75
2022/04/15 12:51:36;;;;;;;;;;;21.50;95.50;;;;;;5043741;28;19929;-76
2022/04/15 12:54:06;;;;;;;;;;;21.10;95.70;;;;;;5042338;28;19925;-76
2022/04/15 12:56:36;;;;;;;;;;;21.30;96.20;;;;;;5049385;28;19946;-76
2022/04/15 12:59:03;;;;;;;;;;;22.00;95.60;;;;;;5043802;28;19925;-74
2022/04/15 13:01:29;;;;;;;;;;;22.50;95.60;;;;;;5039910;28;19928;-73
2022/04/15 13:03:56;;;;;;;;;;;22.90;95.80;;;;;;5037221;28;20028;-74
2022/04/15 13:06:24;;;;;;;;;;;22.70;95.40;;;;;;5065767;28;19924;-75
2022/04/15 13:08:52;;;;;;;;;;;22.80;95.60;;;;;;5073972;28;19924;-75
2022/04/15 13:11:19;;;;;;;;;;;22.70;95.40;;;;;;5077083;28;19972;-76
2022/04/15 13:13:46;;;;;;;;;;;22.40;95.10;;;;;;5093008;28;19935;-76
2022/04/15 13:16:16;;;;;;;;;;;22.40;95.60;;;;;;5064921;28;19990;-76
2022/04/15 13:18:42;;;;;;;;;;;23.00;95.70;;;;;;5062689;28;20024;-76
2022/04/15 13:21:12;;;;;;;;;;;23.70;94.50;;;;;;5064138;28;19928;-75
2022/04/15 13:23:38;;;;;;;;;;;23.90;93.60;;;;;;5095624;28;19924;-75
2022/04/15 13:26:05;;;;;;;;;;;23.90;93.60;;;;;;5056552;28;19925;-76
2022/04/15 13:28:32;;;;;;;;;;;23.90;93.80;;;;;;5059390;28;19924;-75
2022/04/15 13:30:59;;;;;;;;;;;23.80;94.00;;;;;;5063574;28;19931;-76
2022/04/15 13:33:25;;;;;;;;;;;23.90;93.60;;;;;;5066675;28;19931;-76
2022/04/15 13:35:52;;;;;;;;;;;23.60;94.20;;;;;;5057822;28;19929;-75
2022/04/15 13:38:21;;;;;;;;;;;23.70;94.40;;;;;;5065622;28;19932;-76
2022/04/15 13:40:48;;;;;;;;;;;23.70;94.00;;;;;;5064057;28;19936;-75
2022/04/15 13:43:15;;;;;;;;;;;23.30;94.20;;;;;;5057943;28;19939;-75
2022/04/15 13:45:41;;;;;;;;;;;22.90;94.70;;;;;;5062175;28;19931;-75
2022/04/15 13:48:08;;;;;;;;;;;22.80;94.30;;;;;;5060449;28;19924;-75
2022/04/15 13:50:35;;;;;;;;;;;22.60;94.50;;;;;;5061906;28;19932;-75
2022/04/15 13:58:39;;;;;;;;;;;22.80;94.80;;;;;;5057099;28;19924;-75
2022/04/15 14:01:23;;;;;;;;;;;23.30;94.50;;;;;;5065468;28;19971;-75
2022/04/15 14:03:55;;;;;;;;;;;23.80;93.90;;;;;;5066945;28;19924;-75
2022/04/15 14:06:22;;;;;;;;;;;24.00;93.60;;;;;;5062703;28;19931;-76
2022/04/15 14:08:49;;;;;;;;;;;24.50;93.60;;;;;;5058925;28;20039;-76
2022/04/15 14:11:23;;;;;;;;;;;24.40;93.00;;;;;;5065723;28;20295;-75
2022/04/15 14:13:50;;;;;;;;;;;23.80;93.30;;;;;;5063430;28;19928;-75
2022/04/15 14:16:17;;;;;;;;;;;24.50;93.30;;;;;;5062811;28;19925;-75
2022/04/15 14:18:44;;;;;;;;;;;24.80;93.60;;;;;;5064922;28;20019;-75
2022/04/15 14:21:11;;;;;;;;;;;25.60;92.60;;;;;;5065103;28;20188;-75
2022/04/15 14:23:37;;;;;;;;;;;26.00;92.60;;;;;;5062329;28;19925;-75
2022/04/15 14:26:04;;;;;;;;;;;25.90;91.80;;;;;;5063311;28;19924;-75
2022/04/15 14:28:32;;;;;;;;;;;25.80;91.70;;;;;;5065026;28;19928;-75
2022/04/15 14:30:59;;;;;;;;;;;25.70;91.60;;;;;;5064545;28;19925;-75
2022/04/15 14:33:26;;;;;;;;;;;25.30;91.60;;;;;;5065024;28;19932;-75
2022/04/15 14:35:53;;;;;;;;;;;24.90;91.50;;;;;;5064107;28;19947;-76
2022/04/15 14:38:19;;;;;;;;;;;25.30;91.70;;;;;;5064843;28;19939;-75
2022/04/15 14:40:46;;;;;;;;;;;25.70;91.60;;;;;;5059578;28;19936;-76
2022/04/15 14:43:13;;;;;;;;;;;25.70;91.40;;;;;;5066052;28;19932;-75